Time;durP1;ratioP1;P1;durP2;ratioP2;P2;SDS_P1;SDS_P2;PMS_P1;PMS_P2;Temp;Humidity;BMP_temperature;BMP_pressure;BME280_temperature;BME280_humidity;BME280_pressure;Samples;Min_cycle;Max_cycle;Signal;HPM_P1;HPM_P2
2023/01/24 00:00:23;;;;;;;;;36.33;33.00;;;;;3.46;66.26;102970.19;5037457;28;46008;-69
2023/01/24 00:02:48;;;;;;;;;37.67;32.00;;;;;3.36;66.12;102938.88;5036387;28;46099;-71
2023/01/24 00:05:14;;;;;;;;;21.67;17.00;;;;;3.53;66.19;102962.06;5036302;28;45252;-72
2023/01/24 00:07:39;;;;;;;;;32.67;30.00;;;;;3.31;66.19;102935.53;5038302;28;45209;-73
2023/01/24 00:10:05;;;;;;;;;39.67;31.67;;;;;3.48;66.94;102958.72;5036473;28;47781;-70
2023/01/24 00:12:30;;;;;;;;;41.33;37.00;;;;;2.96;65.97;102865.56;5037516;28;45302;-71
2023/01/24 00:14:57;;;;;;;;;39.33;31.67;;;;;3.51;66.39;102941.97;5037342;28;45210;-70
2023/01/24 00:17:24;;;;;;;;;46.00;36.67;;;;;3.64;66.60;102969.66;5036131;28;45543;-70
2023/01/24 00:19:49;;;;;;;;;39.33;35.33;;;;;3.66;66.17;102946.78;5037240;28;45614;-70
2023/01/24 00:22:15;;;;;;;;;45.00;36.33;;;;;3.59;66.93;102943.47;5037144;28;45345;-68
2023/01/24 00:24:40;;;;;;;;;37.00;31.33;;;;;3.13;66.25;102851.94;5035981;28;45358;-70
2023/01/24 00:27:06;;;;;;;;;45.33;37.67;;;;;3.45;66.32;102900.09;5036706;28;45320;-70
2023/01/24 00:29:31;;;;;;;;;41.33;37.00;;;;;3.20;66.17;102857.88;5037872;28;46109;-70
2023/01/24 00:31:56;;;;;;;;;48.67;40.00;;;;;3.33;66.72;102902.16;5037533;28;45546;-69
2023/01/24 00:34:22;;;;;;;;;47.33;39.33;;;;;2.32;66.88;102729.94;5037334;28;45283;-71
2023/01/24 00:36:47;;;;;;;;;44.67;36.00;;;;;2.72;66.80;102811.09;5037385;28;45564;-70
2023/01/24 00:39:13;;;;;;;;;41.00;34.33;;;;;3.15;67.33;102897.44;5036944;28;46457;-69
2023/01/24 00:41:38;;;;;;;;;48.75;41.75;;;;;3.33;66.99;102901.31;5036882;28;45398;-69
2023/01/24 00:44:03;;;;;;;;;48.00;40.00;;;;;3.59;67.09;102939.97;5037367;28;45298;-71
2023/01/24 00:46:29;;;;;;;;;49.33;40.67;;;;;3.60;67.57;102929.44;5038146;28;45623;-70
2023/01/24 00:48:54;;;;;;;;;41.00;37.00;;;;;3.19;67.12;102857.00;5037051;28;46400;-71
2023/01/24 00:51:20;;;;;;;;;45.67;39.00;;;;;3.38;67.05;102898.53;5037274;28;45304;-68
2023/01/24 00:53:45;;;;;;;;;59.00;42.33;;;;;3.67;66.94;102938.00;5036919;28;45177;-69
2023/01/24 00:56:10;;;;;;;;;41.50;36.75;;;;;3.59;67.08;102950.50;5035885;28;45413;-70
2023/01/24 00:58:36;;;;;;;;;43.00;37.50;;;;;3.52;67.48;102948.97;5036859;28;46341;-69
2023/01/24 01:01:04;;;;;;;;;47.33;40.67;;;;;3.00;67.71;102871.56;5035589;28;45352;-68
2023/01/24 01:03:30;;;;;;;;;51.67;39.33;;;;;3.31;66.99;102911.00;5040506;28;45614;-70
2023/01/24 01:06:00;;;;;;;;;53.33;41.67;;;;;3.42;67.41;102966.78;5040554;28;45477;-69
2023/01/24 01:08:26;;;;;;;;;43.00;38.00;;;;;2.43;67.46;102781.25;5040240;28;45442;-71
2023/01/24 01:10:51;;;;;;;;;47.75;39.25;;;;;3.23;67.72;102936.66;5040217;28;45382;-69
2023/01/24 01:13:17;;;;;;;;;40.00;38.00;;;;;3.24;67.51;102923.47;5040460;28;45398;-70
2023/01/24 01:15:42;;;;;;;;;46.67;39.00;;;;;2.72;67.54;102856.59;5039622;28;45416;-71
2023/01/24 01:18:07;;;;;;;;;43.33;33.67;;;;;3.34;68.47;102956.47;5038283;28;46865;-71
2023/01/24 01:20:33;;;;;;;;;24.33;20.67;;;;;3.27;67.64;102923.38;5039991;28;45316;-68
2023/01/24 01:22:58;;;;;;;;;45.33;37.33;;;;;3.46;66.80;102957.03;5040120;28;45482;-69
2023/01/24 01:25:24;;;;;;;;;40.33;36.00;;;;;3.31;67.82;102971.47;5040173;28;45523;-71
2023/01/24 01:27:49;;;;;;;;;50.33;39.00;;;;;3.24;68.30;102973.41;5039697;28;45792;-71
2023/01/24 01:30:15;;;;;;;;;55.33;40.67;;;;;2.34;67.56;102804.25;5039769;28;45459;-69
2023/01/24 01:32:40;;;;;;;;;37.67;31.67;;;;;3.36;68.01;102959.91;5040650;28;45546;-71
2023/01/24 01:35:05;;;;;;;;;44.33;36.00;;;;;3.25;68.12;102946.22;5040091;28;45254;-71
2023/01/24 01:37:31;;;;;;;;;45.00;39.00;;;;;3.04;68.51;102920.53;5038154;28;47382;-70
2023/01/24 01:39:56;;;;;;;;;59.33;45.67;;;;;3.26;68.35;102974.22;5039716;28;47393;-70
2023/01/24 01:42:21;;;;;;;;;42.00;36.33;;;;;3.23;68.87;102969.06;5040013;28;45257;-70
2023/01/24 01:44:49;;;;;;;;;51.75;41.75;;;;;2.53;68.40;102850.13;5040113;28;45250;-71
2023/01/24 01:47:28;;;;;;;;;43.67;36.67;;;;;3.31;68.62;102982.84;5039439;28;45395;-67
2023/01/24 01:50:19;;;;;;;;;44.00;34.00;;;;;1.75;68.63;102686.00;5039288;28;45399;-70
2023/01/24 01:52:44;;;;;;;;;54.00;43.50;;;;;3.39;68.27;102963.34;5039393;28;45452;-71
2023/01/24 01:55:22;;;;;;;;;59.25;44.75;;;;;3.44;69.08;102966.75;5039683;28;45579;-71
2023/01/24 01:57:50;;;;;;;;;43.67;39.33;;;;;3.30;68.20;102939.06;5037952;28;48973;-69
2023/01/24 02:00:18;;;;;;;;;53.67;39.67;;;;;2.55;67.80;102827.31;5037952;28;45370;-69
2023/01/24 02:05:59;;;;;;;;;49.67;42.00;;;;;3.57;68.46;102973.34;5032919;28;45173;-69
2023/01/24 02:08:25;;;;;;;;;52.00;39.33;;;;;3.58;67.74;102965.41;5038856;28;45661;-69
2023/01/24 02:13:44;;;;;;;;;40.00;31.00;;;;;3.46;68.38;102989.44;5038938;28;45452;-69
2023/01/24 02:16:11;;;;;;;;;56.67;43.33;;;;;3.22;68.15;102948.94;5037923;28;45266;-72
2023/01/24 02:18:39;;;;;;;;;53.67;40.67;;;;;3.35;67.78;102952.94;5038733;28;47113;-68
2023/01/24 02:21:17;;;;;;;;;52.75;42.25;;;;;2.62;68.01;102821.00;5039013;28;45375;-68
2023/01/24 02:24:10;;;;;;;;;47.67;39.33;;;;;3.44;67.64;102962.34;5039512;28;45249;-70
2023/01/24 02:26:35;;;;;;;;;59.75;46.25;;;;;3.57;68.22;102997.03;5039156;28;45365;-69
2023/01/24 02:29:06;;;;;;;;;48.67;41.33;;;;;3.55;67.62;102980.41;5037503;28;47667;-68
2023/01/24 02:32:02;;;;;;;;;54.75;45.25;;;;;3.30;67.96;102973.25;5037526;28;45476;-70
2023/01/24 02:34:28;;;;;;;;;58.67;43.00;;;;;3.30;68.35;102996.91;5039335;28;45503;-71
2023/01/24 02:36:57;;;;;;;;;41.00;37.33;;;;;3.28;68.65;102968.94;5039246;28;45533;-68
2023/01/24 02:39:29;;;;;;;;;48.67;39.67;;;;;3.27;68.53;102975.97;5038419;28;45582;-69
2023/01/24 02:42:01;;;;;;;;;58.50;48.50;;;;;3.27;68.35;102968.06;5038734;28;45286;-68
2023/01/24 02:44:37;;;;;;;;;50.67;42.00;;;;;3.15;68.33;102960.50;5037539;28;45358;-68
2023/01/24 02:47:03;;;;;;;;;41.00;37.33;;;;;2.03;68.81;102791.09;5039238;28;45526;-69
2023/01/24 02:49:28;;;;;;;;;58.25;46.50;;;;;3.10;68.78;102972.91;5038642;28;45623;-70
2023/01/24 02:54:39;;;;;;;;;55.50;42.25;;;;;1.00;67.98;102617.16;5038541;28;45385;-71
2023/01/24 02:59:48;;;;;;;;;43.33;36.67;;;;;3.30;67.96;102970.59;5038194;28;45811;-71
2023/01/24 03:02:13;;;;;;;;;53.00;40.33;;;;;2.86;67.80;102881.63;5038424;28;45443;-71
2023/01/24 03:04:39;;;;;;;;;52.75;41.50;;;;;3.31;67.96;102972.34;5037102;28;45479;-70
2023/01/24 03:07:04;;;;;;;;;58.25;45.00;;;;;2.85;67.61;102898.28;5038496;28;45280;-71
2023/01/24 03:09:38;;;;;;;;;50.25;42.75;;;;;3.13;67.91;102954.44;5038216;28;46413;-69
2023/01/24 03:36:42;;;;;;;;;54.33;40.00;;;;;3.30;67.12;102975.88;5037868;28;45392;-70
2023/01/24 03:41:53;;;;;;;;;55.00;41.00;;;;;3.36;66.90;102983.56;5037953;28;45498;-68
2023/01/24 03:44:19;;;;;;;;;54.00;43.75;;;;;3.16;67.75;102974.50;5037634;28;45372;-68
2023/01/24 03:46:44;;;;;;;;;50.00;40.00;;;;;3.13;67.69;102996.50;5037656;28;45481;-69
2023/01/24 03:49:09;;;;;;;;;44.67;38.33;;;;;3.01;67.36;102976.66;5038359;28;45242;-71
2023/01/24 03:54:19;;;;;;;;;58.75;43.50;;;;;3.00;67.93;102971.44;5037771;28;45334;-69
2023/01/24 03:56:44;;;;;;;;;55.33;41.33;;;;;3.14;67.49;102957.94;5037657;28;45284;-69
2023/01/24 03:59:09;;;;;;;;;42.67;39.67;;;;;3.12;68.02;102950.09;5039321;28;45178;-70
2023/01/24 04:01:35;;;;;;;;;57.75;46.25;;;;;2.88;67.80;102946.34;5039073;28;46652;-69
2023/01/24 04:04:00;;;;;;;;;57.50;46.50;;;;;2.67;68.36;102920.66;5037527;28;45262;-68
2023/01/24 04:06:26;;;;;;;;;53.25;42.00;;;;;3.00;69.00;102981.94;5037244;28;45218;-69
2023/01/24 04:08:51;;;;;;;;;31.50;28.25;;;;;2.64;68.69;102921.59;5036290;28;45390;-71
2023/01/24 04:11:17;;;;;;;;;47.25;38.50;;;;;3.05;67.94;102969.56;5037227;28;45677;-69
2023/01/24 04:13:42;;;;;;;;;56.00;44.67;;;;;3.08;68.55;102972.09;5036948;28;45397;-69
2023/01/24 04:16:08;;;;;;;;;57.00;43.33;;;;;3.07;68.69;102964.25;5037119;28;45565;-70
2023/01/24 04:18:36;;;;;;;;;56.00;46.00;;;;;3.13;68.07;102975.47;5037204;28;45531;-71
2023/01/24 04:21:02;;;;;;;;;61.00;45.00;;;;;2.94;67.87;102935.69;5035629;28;48323;-69
2023/01/24 04:23:28;;;;;;;;;47.67;40.67;;;;;3.11;68.22;102950.13;5035537;28;45513;-69
2023/01/24 04:25:56;;;;;;;;;51.00;40.33;;;;;2.22;67.71;102797.56;5036999;28;45366;-70
2023/01/24 04:28:22;;;;;;;;;53.67;41.33;;;;;2.79;68.06;102901.94;5037448;28;46544;-68
2023/01/24 04:30:48;;;;;;;;;54.33;44.00;;;;;2.25;68.94;102809.75;5036789;28;45666;-69
2023/01/24 04:33:13;;;;;;;;;58.25;44.50;;;;;3.05;68.25;102948.53;5036857;28;45336;-68
2023/01/24 04:35:39;;;;;;;;;55.75;43.00;;;;;2.26;68.20;102817.59;5036925;28;45356;-69
2023/01/24 04:38:04;;;;;;;;;57.67;43.00;;;;;2.97;68.61;102955.75;5036659;28;45548;-70
2023/01/24 04:40:29;;;;;;;;;53.50;41.75;;;;;2.64;68.37;102924.22;5037827;28;45297;-70
2023/01/24 04:42:56;;;;;;;;;56.25;46.50;;;;;2.42;68.84;102916.03;5037575;28;45274;-68
2023/01/24 04:45:22;;;;;;;;;59.50;45.75;;;;;2.34;69.52;102893.50;5037048;28;45242;-68
2023/01/24 04:47:48;;;;;;;;;52.25;42.00;;;;;2.48;69.73;102915.00;5036934;28;45372;-68
2023/01/24 04:50:13;;;;;;;;;47.25;39.75;;;;;2.74;68.84;102974.75;5036601;28;45475;-69
2023/01/24 04:52:38;;;;;;;;;57.50;43.75;;;;;2.69;69.29;102945.13;5036597;28;45426;-70
2023/01/24 04:55:04;;;;;;;;;51.50;42.00;;;;;2.83;69.25;102968.41;5035635;28;45226;-71
2023/01/24 04:57:29;;;;;;;;;59.50;43.75;;;;;2.88;68.73;102984.91;5037183;28;45530;-70
2023/01/24 04:59:55;;;;;;;;;63.75;48.75;;;;;3.03;68.82;102981.88;5036681;28;46207;-69
2023/01/24 05:02:23;;;;;;;;;52.25;43.00;;;;;1.71;69.27;102765.66;5036533;28;45457;-69
2023/01/24 05:04:48;;;;;;;;;58.25;43.50;;;;;2.19;68.73;102850.13;5036785;28;45486;-69
2023/01/24 05:07:14;;;;;;;;;52.00;40.75;;;;;2.95;69.18;102995.22;5036880;28;45315;-70
2023/01/24 05:09:39;;;;;;;;;46.67;39.67;;;;;2.99;68.53;103001.25;5035262;28;48244;-70
2023/01/24 05:12:05;;;;;;;;;53.00;41.33;;;;;2.66;69.19;102937.31;5036283;28;45331;-70
2023/01/24 05:14:30;;;;;;;;;41.00;36.00;;;;;2.92;69.25;102987.41;5036787;28;45510;-71
2023/01/24 05:16:55;;;;;;;;;49.75;43.00;;;;;2.83;68.95;102979.78;5036370;28;45353;-70
2023/01/24 05:19:22;;;;;;;;;42.00;35.00;;;;;2.90;69.18;103001.50;5036156;28;45368;-70
2023/01/24 05:21:47;;;;;;;;;57.33;44.00;;;;;2.71;69.79;102965.19;5036364;28;45547;-71
2023/01/24 05:24:12;;;;;;;;;48.33;38.33;;;;;2.92;69.42;103005.78;5034694;28;52782;-68
2023/01/24 05:26:38;;;;;;;;;51.75;39.25;;;;;2.36;69.53;102907.44;5036633;28;45228;-70
2023/01/24 05:29:03;;;;;;;;;44.50;39.25;;;;;2.93;69.32;103007.53;5034883;28;47922;-70
2023/01/24 05:31:28;;;;;;;;;47.67;41.67;;;;;2.87;69.73;102984.03;5036323;28;45228;-72
2023/01/24 05:33:54;;;;;;;;;43.00;36.67;;;;;2.95;68.62;103007.47;5036034;28;45510;-70
2023/01/24 05:36:21;;;;;;;;;44.33;38.33;;;;;2.57;69.04;102937.53;5034887;28;45526;-70
2023/01/24 05:38:47;;;;;;;;;47.00;37.00;;;;;3.09;68.87;103008.00;5036080;28;45828;-71
2023/01/24 05:41:15;;;;;;;;;55.33;42.67;;;;;2.51;68.75;102874.69;5036342;28;45501;-70
2023/01/24 05:43:41;;;;;;;;;48.33;39.67;;;;;3.07;68.53;102978.25;5035027;28;45422;-70
2023/01/24 05:46:11;;;;;;;;;51.33;44.33;;;;;3.30;67.74;103020.56;5036237;28;45471;-71
2023/01/24 05:48:36;;;;;;;;;53.00;42.33;;;;;3.26;68.06;103016.28;5036498;28;46721;-69
2023/01/24 05:51:07;;;;;;;;;51.67;38.33;;;;;3.29;68.59;103020.59;5039573;28;45269;-71
2023/01/24 05:53:36;;;;;;;;;50.75;41.75;;;;;3.14;68.48;103003.47;5039500;28;45233;-68
2023/01/24 05:56:04;;;;;;;;;49.50;37.50;;;;;2.18;69.20;102879.03;5039546;28;45373;-69
2023/01/24 05:58:33;;;;;;;;;52.25;41.00;;;;;2.63;69.28;102961.91;5038981;28;47144;-70
2023/01/24 06:00:59;;;;;;;;;49.25;40.25;;;;;2.82;69.61;102983.31;5037763;28;46641;-69
2023/01/24 06:03:24;;;;;;;;;39.00;29.67;;;;;2.64;69.37;102982.00;5039663;28;45266;-70
2023/01/24 06:05:52;;;;;;;;;54.50;41.25;;;;;0.56;69.73;102641.69;5039924;28;45852;-70
2023/01/24 06:08:18;;;;;;;;;60.50;48.50;;;;;2.69;70.14;103011.63;5039127;28;46725;-71
2023/01/24 06:10:44;;;;;;;;;55.25;42.50;;;;;2.72;70.13;103019.44;5038934;28;46019;-69
2023/01/24 06:13:10;;;;;;;;;50.00;43.25;;;;;2.61;70.99;103008.34;5039093;28;45486;-68
2023/01/24 06:15:35;;;;;;;;;55.67;39.00;;;;;2.37;70.75;102974.78;5039120;28;45430;-68
2023/01/24 06:18:01;;;;;;;;;46.75;39.25;;;;;2.74;70.38;103043.91;5038306;28;46626;-70
2023/01/24 06:20:27;;;;;;;;;49.75;39.00;;;;;2.75;70.34;103021.97;5037403;28;45366;-68
2023/01/24 06:23:04;;;;;;;;;40.50;38.75;;;;;2.87;69.98;103027.84;5038704;28;45249;-72
2023/01/24 06:25:30;;;;;;;;;47.75;38.75;;;;;2.93;69.78;103028.53;5037691;28;45249;-70
2023/01/24 06:27:56;;;;;;;;;54.50;42.75;;;;;2.86;70.03;103028.75;5039228;28;45777;-69
2023/01/24 06:30:27;;;;;;;;;39.25;33.50;;;;;2.63;70.15;103001.28;5037645;28;45557;-71
2023/01/24 06:33:08;;;;;;;;;50.25;41.50;;;;;2.82;69.96;103030.59;5037713;28;45458;-71
2023/01/24 06:35:36;;;;;;;;;51.25;41.25;;;;;2.88;70.03;103021.69;5039297;28;45455;-69
2023/01/24 06:38:01;;;;;;;;;49.25;42.50;;;;;1.20;70.13;102759.00;5039171;28;46260;-71
2023/01/24 06:40:30;;;;;;;;;47.00;37.00;;;;;2.62;70.12;102975.94;5040803;28;45379;-71
2023/01/24 06:42:56;;;;;;;;;55.50;42.75;;;;;3.00;69.38;103023.97;5039337;28;45287;-71
2023/01/24 06:45:22;;;;;;;;;58.00;43.50;;;;;2.74;69.75;102988.75;5038837;28;45453;-71
2023/01/24 06:47:47;;;;;;;;;58.50;43.75;;;;;2.73;69.02;103005.41;5036875;28;47818;-69
2023/01/24 06:50:18;;;;;;;;;47.50;41.25;;;;;2.95;69.38;103045.13;5037825;28;60687;-73
2023/01/24 06:52:48;;;;;;;;;56.75;43.50;;;;;2.84;69.92;103043.69;5038430;28;45324;-71
2023/01/24 06:55:14;;;;;;;;;59.50;47.25;;;;;2.50;69.91;102978.84;5038598;28;45566;-71
2023/01/24 06:57:39;;;;;;;;;57.50;44.00;;;;;1.94;69.73;102881.34;5038045;28;46305;-70
2023/01/24 07:00:05;;;;;;;;;51.50;41.75;;;;;2.96;69.97;103038.09;5038256;28;45407;-70
2023/01/24 07:02:31;;;;;;;;;64.75;51.25;;;;;2.74;69.83;103017.63;5037060;28;45357;-69
2023/01/24 07:04:56;;;;;;;;;52.50;43.50;;;;;2.92;70.85;103054.84;5038561;28;45530;-70
2023/01/24 07:07:22;;;;;;;;;66.75;48.50;;;;;2.85;70.22;103034.91;5036599;28;48274;-72
2023/01/24 07:09:47;;;;;;;;;48.00;39.25;;;;;1.92;70.21;102870.03;5038087;28;45322;-72
2023/01/24 07:12:15;;;;;;;;;57.75;44.50;;;;;2.62;69.99;102991.69;5038348;28;45273;-69
2023/01/24 07:14:48;;;;;;;;;54.50;45.00;;;;;2.89;69.66;103033.91;5039595;28;45533;-70
2023/01/24 07:17:13;;;;;;;;;48.50;40.50;;;;;2.78;69.92;103012.28;5017189;28;47339;-69
2023/01/24 07:19:39;;;;;;;;;55.25;43.00;;;;;2.84;70.49;103047.19;5029612;28;45528;-73
2023/01/24 07:22:09;;;;;;;;;56.75;44.25;;;;;2.40;70.65;102966.81;5034831;28;45299;-73
2023/01/24 07:24:35;;;;;;;;;67.50;48.50;;;;;2.69;71.03;103039.66;5012805;28;45877;-70
2023/01/24 07:27:00;;;;;;;;;58.50;43.75;;;;;2.97;70.35;103056.47;5021587;28;48711;-70
2023/01/24 07:29:26;;;;;;;;;61.00;48.75;;;;;3.06;69.78;103071.16;5037615;28;45260;-71
2023/01/24 07:31:58;;;;;;;;;62.50;51.00;;;;;3.05;69.92;103056.28;5037808;28;45565;-73
2023/01/24 07:34:38;;;;;;;;;54.50;45.00;;;;;2.90;69.76;103044.38;5020485;28;45554;-72
2023/01/24 07:37:07;;;;;;;;;57.50;45.00;;;;;2.74;70.47;103036.00;5020671;28;45312;-72
2023/01/24 07:39:33;;;;;;;;;52.75;42.50;;;;;2.80;70.70;103058.63;5039402;28;45479;-70
2023/01/24 07:41:58;;;;;;;;;60.00;47.25;;;;;2.97;71.00;103087.13;5038944;28;45435;-72
2023/01/24 07:44:24;;;;;;;;;59.00;46.25;;;;;2.86;70.82;103041.88;5038667;28;45639;-71
2023/01/24 07:46:49;;;;;;;;;58.50;46.25;;;;;3.15;69.91;103075.28;5038247;28;46669;-70
2023/01/24 07:49:14;;;;;;;;;59.00;44.00;;;;;2.81;69.43;103014.88;5037460;28;45332;-78
2023/01/24 07:51:40;;;;;;;;;63.50;47.75;;;;;3.11;70.50;103086.78;5017593;28;45840;-73
2023/01/24 07:54:06;;;;;;;;;55.50;43.25;;;;;2.74;70.52;103057.03;5036949;28;45487;-72
2023/01/24 07:56:31;;;;;;;;;61.75;46.25;;;;;2.77;71.04;103069.22;5035666;28;47692;-74
2023/01/24 07:58:58;;;;;;;;;54.25;43.50;;;;;2.88;71.41;103082.97;5037117;28;45469;-72
2023/01/24 08:01:24;;;;;;;;;46.25;35.25;;;;;2.69;71.18;103072.03;5034072;28;46004;-71
2023/01/24 08:03:50;;;;;;;;;68.25;49.00;;;;;2.59;71.59;103036.38;5031914;28;45765;-71
2023/01/24 08:06:16;;;;;;;;;59.00;46.50;;;;;2.67;71.23;103081.72;5034214;28;46873;-70
2023/01/24 08:08:41;;;;;;;;;59.25;45.75;;;;;2.79;72.37;103105.97;5026910;28;45570;-71
2023/01/24 08:11:06;;;;;;;;;43.50;37.25;;;;;1.75;71.64;102933.34;5018446;28;45449;-72
2023/01/24 08:13:32;;;;;;;;;58.00;46.25;;;;;2.61;71.90;103068.75;5032277;28;45520;-72
2023/01/24 08:16:00;;;;;;;;;59.75;45.00;;;;;2.58;71.27;103042.53;5035124;28;47394;-71
2023/01/24 08:18:25;;;;;;;;;58.25;45.25;;;;;2.65;70.96;103023.13;5018150;28;45444;-72
2023/01/24 08:20:54;;;;;;;;;56.25;46.25;;;;;2.80;70.64;103034.13;5034574;28;45354;-73
2023/01/24 08:23:20;;;;;;;;;59.50;45.50;;;;;2.65;69.94;103028.38;5017561;28;45362;-73
2023/01/24 08:25:45;;;;;;;;;59.00;44.50;;;;;2.78;71.34;103064.84;5038641;28;48001;-72
2023/01/24 08:28:11;;;;;;;;;57.75;46.50;;;;;3.08;70.94;103100.00;5051553;28;45607;-71
2023/01/24 08:30:36;;;;;;;;;62.00;49.25;;;;;2.84;70.97;103085.72;5006457;28;45665;-71
2023/01/24 08:33:03;;;;;;;;;60.50;48.00;;;;;3.04;71.06;103101.88;5024809;28;45272;-74
2023/01/24 08:35:30;;;;;;;;;65.00;50.75;;;;;3.06;71.07;103107.94;5016294;28;47329;-72
2023/01/24 08:37:56;;;;;;;;;58.00;46.50;;;;;3.00;70.58;103089.69;5014840;28;45507;-73
2023/01/24 08:40:21;;;;;;;;;65.25;49.00;;;;;2.65;71.03;103028.38;5017248;28;45541;-73
2023/01/24 08:42:47;;;;;;;;;52.75;41.50;;;;;3.03;70.41;103076.50;5037028;28;45250;-71
2023/01/24 08:45:12;;;;;;;;;65.00;49.00;;;;;3.07;70.38;103099.16;5031604;28;48494;-76
2023/01/24 08:47:38;;;;;;;;;57.25;45.00;;;;;3.28;70.11;103118.78;5035019;28;46092;-70
2023/01/24 08:50:03;;;;;;;;;60.25;45.50;;;;;3.32;69.72;103126.53;5038529;28;45711;-72
2023/01/24 08:52:28;;;;;;;;;57.00;46.50;;;;;3.25;70.17;103130.25;5039535;28;45198;-72
2023/01/24 08:54:54;;;;;;;;;62.00;46.75;;;;;3.09;70.49;103094.72;5037569;28;45670;-69
2023/01/24 08:57:19;;;;;;;;;62.00;49.25;;;;;3.19;69.84;103119.84;5019257;28;46013;-72
2023/01/24 08:59:44;;;;;;;;;61.25;46.75;;;;;2.71;69.80;103022.97;5038191;28;45298;-69
2023/01/24 09:02:16;;;;;;;;;54.00;40.50;;;;;0.85;69.53;102704.78;5037200;28;45301;-72
2023/01/24 09:04:42;;;;;;;;;56.00;42.75;;;;;3.33;69.32;103122.16;5036457;28;46207;-72
2023/01/24 09:07:08;;;;;;;;;57.75;42.25;;;;;3.41;69.26;103124.59;5037851;28;45347;-72
2023/01/24 09:09:34;;;;;;;;;55.75;44.50;;;;;3.38;69.22;103098.34;5037784;28;45213;-73
2023/01/24 09:11:59;;;;;;;;;62.75;48.75;;;;;3.50;69.54;103137.50;5019060;28;45443;-72
2023/01/24 09:14:24;;;;;;;;;64.75;49.00;;;;;2.58;68.96;102989.16;5018205;28;48598;-72
2023/01/24 09:16:50;;;;;;;;;61.75;48.75;;;;;3.38;69.38;103150.94;5036956;28;45479;-71
2023/01/24 09:19:15;;;;;;;;;63.50;48.00;;;;;3.16;70.11;103109.41;5039551;28;45330;-71
2023/01/24 09:21:44;;;;;;;;;58.50;49.75;;;;;3.39;69.82;103143.00;5022858;28;45523;-70
2023/01/24 09:24:10;;;;;;;;;58.75;44.75;;;;;3.34;70.00;103140.50;5041594;28;46631;-71
2023/01/24 09:26:35;;;;;;;;;66.25;53.00;;;;;2.20;69.92;102940.19;5039852;28;45348;-73
2023/01/24 09:29:00;;;;;;;;;64.50;50.75;;;;;2.53;70.04;103025.16;5040245;28;45253;-72
2023/01/24 09:31:26;;;;;;;;;57.75;40.25;;;;;3.00;70.80;103097.56;5040264;28;45538;-72
2023/01/24 09:33:51;;;;;;;;;62.00;47.00;;;;;3.21;70.68;103136.47;5039561;28;45445;-73
2023/01/24 09:36:16;;;;;;;;;60.75;48.00;;;;;3.29;69.66;103144.16;5039505;28;45445;-69
2023/01/24 09:38:42;;;;;;;;;58.50;45.75;;;;;3.03;70.24;103097.50;5039769;28;45356;-73
2023/01/24 09:41:29;;;;;;;;;64.00;51.75;;;;;3.28;70.32;103145.06;5022481;28;45386;-72
2023/01/24 09:44:15;;;;;;;;;58.75;47.50;;;;;2.93;70.21;103081.09;5042378;28;46098;-72
2023/01/24 09:46:48;;;;;;;;;54.00;42.00;;;;;1.18;70.33;102800.06;5039988;28;45511;-71
2023/01/24 09:49:45;;;;;;;;;60.75;49.00;;;;;3.42;69.96;103147.38;5021534;28;45742;-71
2023/01/24 09:52:23;;;;;;;;;60.75;47.50;;;;;3.27;69.68;103117.91;5039420;28;45630;-72
2023/01/24 09:55:03;;;;;;;;;61.50;47.00;;;;;3.23;69.86;103110.16;5020837;28;45877;-70
2023/01/24 09:57:49;;;;;;;;;64.75;52.75;;;;;3.35;70.19;103152.75;5021046;28;45261;-72
2023/01/24 10:00:29;;;;;;;;;50.00;42.00;;;;;3.40;69.31;103154.41;5039590;28;45523;-71
2023/01/24 10:02:58;;;;;;;;;53.00;45.00;;;;;2.41;70.45;102992.22;5040006;28;45290;-73
2023/01/24 10:05:32;;;;;;;;;66.50;49.75;;;;;3.43;70.17;103154.34;5039375;28;46284;-72
2023/01/24 10:08:28;;;;;;;;;55.00;43.75;;;;;3.64;69.20;103164.31;5039739;28;45425;-72
2023/01/24 10:11:20;;;;;;;;;59.75;44.75;;;;;3.22;68.87;103093.53;5022063;28;45258;-72
2023/01/24 10:14:05;;;;;;;;;58.75;42.50;;;;;3.40;69.92;103128.09;5041252;28;45241;-72
2023/01/24 10:17:11;;;;;;;;;68.00;48.25;;;;;3.21;69.39;103083.91;5040042;28;45409;-72
2023/01/24 10:19:52;;;;;;;;;62.75;47.25;;;;;3.89;69.30;103170.63;5037345;28;45599;-70
2023/01/24 10:22:42;;;;;;;;;58.00;43.33;;;;;3.93;68.58;103167.00;5039063;28;45261;-72
2023/01/24 10:25:14;;;;;;;;;59.33;46.33;;;;;2.36;68.19;102904.81;5039348;28;45338;-71
2023/01/24 10:27:49;;;;;;;;;60.50;47.00;;;;;2.77;68.90;102958.91;5039277;28;46661;-71
2023/01/24 10:30:40;;;;;;;;;59.00;43.75;;;;;3.84;68.73;103156.75;5021265;28;45435;-71
2023/01/24 10:33:15;;;;;;;;;56.75;46.00;;;;;3.08;69.05;103027.28;5040028;28;45258;-70
2023/01/24 10:36:23;;;;;;;;;64.00;47.75;;;;;3.68;68.66;103118.59;5038837;28;45327;-71
2023/01/24 10:38:48;;;;;;;;;52.00;42.67;;;;;2.70;69.25;102955.56;5038511;28;46256;-71
2023/01/24 10:41:19;;;;;;;;;60.00;47.50;;;;;3.91;69.44;103162.69;5040788;28;45412;-70
2023/01/24 10:43:48;;;;;;;;;55.00;45.75;;;;;3.75;69.34;103125.41;5041111;28;45330;-70
2023/01/24 10:46:31;;;;;;;;;57.33;44.33;;;;;3.88;69.13;103153.13;5022145;28;45547;-72
2023/01/24 10:49:00;;;;;;;;;55.67;43.67;;;;;3.72;69.45;103151.81;5039165;28;45314;-72
2023/01/24 10:51:26;;;;;;;;;66.00;48.50;;;;;3.32;69.14;103073.97;5042080;28;45543;-71
2023/01/24 10:54:00;;;;;;;;;60.00;48.25;;;;;3.61;69.70;103117.91;5021453;28;45499;-72
2023/01/24 10:56:26;;;;;;;;;59.50;47.50;;;;;3.69;69.75;103120.31;5039263;28;45492;-72
2023/01/24 10:59:14;;;;;;;;;57.50;45.00;;;;;3.87;70.06;103137.38;5040714;28;46469;-72
2023/01/24 11:01:47;;;;;;;;;60.25;48.00;;;;;4.02;70.02;103141.34;5021845;28;45325;-72
2023/01/24 11:04:20;;;;;;;;;61.00;48.25;;;;;3.72;68.87;103083.41;5038700;28;45277;-72
2023/01/24 11:06:50;;;;;;;;;51.33;40.00;;;;;3.38;68.87;103038.75;5038908;28;45533;-72
2023/01/24 11:09:20;;;;;;;;;63.50;46.75;;;;;3.74;69.69;103107.91;5037868;28;45706;-71
2023/01/24 11:11:50;;;;;;;;;52.00;38.00;;;;;3.40;68.75;103043.97;5038140;28;45367;-73
2023/01/24 11:14:27;;;;;;;;;61.25;46.25;;;;;4.00;68.49;103129.97;5039643;28;45272;-76
2023/01/24 11:16:58;;;;;;;;;58.67;42.33;;;;;4.03;68.33;103115.00;5012869;28;45452;-72
2023/01/24 11:19:39;;;;;;;;;62.50;45.75;;;;;3.95;68.42;103088.88;5021247;28;45717;-77
2023/01/24 11:22:34;;;;;;;;;55.75;43.25;;;;;4.02;67.71;103072.94;5019193;28;45620;-80
2023/01/24 11:25:01;;;;;;;;;59.75;45.75;;;;;4.35;67.97;103121.06;5021477;28;45313;-71
2023/01/24 11:27:27;;;;;;;;;59.67;47.00;;;;;4.43;67.83;103111.19;5039669;28;45550;-71
2023/01/24 11:30:19;;;;;;;;;62.67;48.67;;;;;4.41;67.29;103110.38;5039027;28;46761;-73
2023/01/24 11:33:12;;;;;;;;;59.33;47.67;;;;;4.50;67.18;103125.88;5039060;28;45496;-71
2023/01/24 11:35:44;;;;;;;;;52.75;39.75;;;;;4.43;67.38;103114.69;5038311;28;45251;-72
2023/01/24 11:38:09;;;;;;;;;55.00;42.00;;;;;4.42;67.90;103105.06;5020842;28;45346;-75
2023/01/24 11:40:44;;;;;;;;;54.25;42.75;;;;;4.25;68.04;103102.94;5038616;28;46245;-72
2023/01/24 11:43:46;;;;;;;;;50.67;37.33;;;;;4.36;67.90;103099.94;5021896;28;46400;-71
2023/01/24 11:46:21;;;;;;;;;52.33;40.00;;;;;4.36;67.35;103101.72;5020562;28;45454;-72
2023/01/24 11:49:17;;;;;;;;;55.50;45.25;;;;;4.46;67.82;103103.19;5041792;28;45519;-72
2023/01/24 11:52:16;;;;;;;;;37.67;34.00;;;;;3.00;67.60;102850.56;5040813;28;45673;-72
2023/01/24 11:54:53;;;;;;;;;51.00;41.50;;;;;4.41;67.78;103102.47;5038632;28;45380;-72
2023/01/24 11:57:32;;;;;;;;;54.33;42.00;;;;;4.39;68.18;103102.50;5039085;28;45492;-72
2023/01/24 12:00:23;;;;;;;;;52.00;39.33;;;;;4.45;68.01;103101.47;5021108;28;45298;-72
2023/01/24 12:02:56;;;;;;;;;46.33;37.67;;;;;3.55;67.33;102928.69;5039281;28;45432;-73
2023/01/24 12:05:57;;;;;;;;;48.50;42.00;;;;;4.54;67.03;103101.16;5037529;28;45436;-71
2023/01/24 12:08:43;;;;;;;;;48.67;38.67;;;;;4.40;68.34;103093.69;4993143;28;45350;-73